Terminal Aerodrome Forecast
Issued by NWS Corpus Christi, TX

Home | Current Version | Previous Version | Text Only | Print | Product List | Glossary On
Versions: 1 2 3 4 5 6 7 8 9 10 11 12 13 14 15 16 17 18 19
604
FTUS44 KCRP 190522
TAFVCT
TAF
KVCT 190522Z 1906/2006 36016G26KT P6SM SKC
     FM190800 35013KT P6SM SKC
     FM191600 02014G22KT P6SM FEW250
     FM192200 02008KT P6SM SCT250=

USA.gov is the U.S. government's official web portal to all federal, state and local government web resources and services.